Time;durP1;ratioP1;P1;durP2;ratioP2;P2;SDS_P1;SDS_P2;PMS_P1;PMS_P2;Temp;Humidity;BMP_temperature;BMP_pressure;BME280_temperature;BME280_humidity;BME280_pressure;Samples;Min_cycle;Max_cycle;Signal;HPM_P1;HPM_P2
2022/03/31 17:09:07;;;;;;;13.88;8.05;;;;;;;1.87;82.03;98514.75;5056285;28;20745;-75
2022/03/31 17:11:33;;;;;;;12.90;8.07;;;;;;;2.12;81.94;98540.66;4831710;28;437319;-75
2022/03/31 17:13:59;;;;;;;11.40;7.93;;;;;;;1.98;82.29;98504.69;4973304;28;20026;-76
2022/03/31 17:16:25;;;;;;;;;;;;;;;2.22;81.32;98539.91;4995467;28;176156;-78
2022/03/31 17:18:51;;;;;;;11.73;7.43;;;;;;;2.22;80.69;98532.22;5006813;28;19918;-77
2022/03/31 17:21:17;;;;;;;;;;;;;;;2.31;80.99;98531.47;5019278;28;20042;-78
2022/03/31 17:23:46;;;;;;;10.70;7.15;;;;;;;2.23;80.72;98526.25;5012497;28;19925;-77
2022/03/31 17:26:12;;;;;;;11.63;7.55;;;;;;;2.11;80.56;98523.56;5005282;28;20391;-77
2022/03/31 17:28:38;;;;;;;11.68;7.80;;;;;;;2.15;80.53;98530.44;4973794;28;20023;-77
2022/03/31 17:31:05;;;;;;;12.82;8.30;;;;;;;2.17;81.01;98526.19;5006331;28;20038;-76
2022/03/31 17:33:31;;;;;;;11.50;7.47;;;;;;;2.26;81.01;98549.34;4988800;28;20039;-78
2022/03/31 17:35:58;;;;;;;15.88;11.77;;;;;;;2.12;81.43;98525.28;5018047;28;20072;-77
2022/03/31 17:38:24;;;;;;;13.60;9.07;;;;;;;2.16;80.70;98522.78;4976082;28;20049;-79
2022/03/31 17:40:50;;;;;;;10.82;7.30;;;;;;;2.16;80.39;98522.78;4988265;28;20386;-80
2022/03/31 17:43:21;;;;;;;11.20;7.70;;;;;;;2.09;80.14;98525.25;4973082;28;20035;-77
2022/03/31 17:45:51;;;;;;;11.80;7.90;;;;;;;2.07;80.51;98525.25;5034931;28;20116;-76
2022/03/31 17:48:16;;;;;;;10.10;7.43;;;;;;;2.05;80.96;98516.69;4990014;28;20069;-76
2022/03/31 17:50:42;;;;;;;30.98;22.52;;;;;;;2.12;80.85;98532.97;4974820;28;20064;-77
2022/03/31 17:53:08;;;;;;;;;;;;;;;2.42;81.01;98573.38;4993160;28;20042;-76
2022/03/31 17:55:34;;;;;;;12.55;8.25;;;;;;;2.44;80.66;98571.72;4988074;28;20365;-78
2022/03/31 17:58:00;;;;;;;11.02;7.35;;;;;;;2.24;80.32;98538.22;5005058;28;20042;-76
2022/03/31 18:00:26;;;;;;;11.68;7.47;;;;;;;2.12;80.14;98522.75;4988549;28;20493;-79
2022/03/31 18:02:52;;;;;;;9.68;6.85;;;;;;;2.21;80.25;98562.06;5005605;28;20046;-77
2022/03/31 18:05:18;;;;;;;;;;;;;;;2.41;80.77;98584.47;4989785;28;20121;-77
2022/03/31 18:07:44;;;;;;;10.38;7.20;;;;;;;2.12;80.39;98527.84;5002760;28;20013;-76
2022/03/31 18:10:14;;;;;;;11.20;7.60;;;;;;;2.31;81.07;98565.59;5039444;28;20790;-77
2022/03/31 18:12:43;;;;;;;9.77;6.75;;;;;;;2.17;80.37;98550.09;4987592;28;20148;-79
2022/03/31 18:15:11;;;;;;;11.25;7.95;;;;;;;2.01;80.08;98528.56;4988310;28;20050;-78
2022/03/31 18:17:37;;;;;;;11.32;8.52;;;;;;;2.17;80.13;98572.25;5022722;28;20068;-75
2022/03/31 18:20:06;;;;;;;11.95;7.65;;;;;;;2.08;80.81;98552.53;4976808;28;20054;-76
2022/03/31 18:22:34;;;;;;;10.90;8.00;;;;;;;2.21;80.56;98568.91;4993293;28;20133;-76
2022/03/31 18:25:00;;;;;;;13.23;9.63;;;;;;;2.16;80.84;98563.72;4991613;28;20027;-78
2022/03/31 18:27:36;;;;;;;11.10;8.18;;;;;;;2.02;80.80;98535.44;4991640;28;20039;-79
2022/03/31 18:35:31;;;;;;;11.30;7.95;;;;;;;2.14;80.82;98559.41;4979002;28;20035;-76
2022/03/31 18:37:57;;;;;;;11.93;8.27;;;;;;;2.20;81.35;98569.72;4977504;28;20401;-76
2022/03/31 18:40:23;;;;;;;11.63;8.45;;;;;;;2.11;81.06;98549.13;4977022;28;20035;-75
2022/03/31 18:42:48;;;;;;;11.52;8.52;;;;;;;2.02;80.93;98532.88;4980422;28;20026;-78
2022/03/31 18:45:14;;;;;;;12.52;8.18;;;;;;;2.14;80.98;98556.84;4990103;28;20039;-76
2022/03/31 18:47:40;;;;;;;13.00;8.48;;;;;;;1.89;80.61;98520.78;4976984;28;20037;-79
2022/03/31 18:50:08;;;;;;;13.77;10.02;;;;;;;1.96;80.69;98555.78;4992555;28;20447;-76
2022/03/31 18:52:35;;;;;;;12.13;8.70;;;;;;;1.88;80.89;98552.31;4998003;28;20051;-76
2022/03/31 18:55:01;;;;;;;13.43;9.85;;;;;;;2.17;81.48;98572.25;4944687;28;20046;-76
2022/03/31 18:57:30;;;;;;;15.00;9.82;;;;;;;2.14;80.98;98569.66;5008772;28;20118;-75
2022/03/31 18:59:56;;;;;;;13.32;9.38;;;;;;;1.80;81.80;98512.97;4980815;28;20113;-76
2022/03/31 19:02:23;;;;;;;28.77;20.95;;;;;;;2.01;81.30;98538.78;4991024;28;20050;-76
2022/03/31 19:04:49;;;;;;;16.25;10.75;;;;;;;2.19;81.67;98555.22;5011200;28;20034;-75
2022/03/31 19:07:15;;;;;;;14.60;10.57;;;;;;;2.20;81.24;98546.69;4990701;28;20462;-77
2022/03/31 19:09:41;;;;;;;38.80;27.40;;;;;;;2.28;81.04;98555.31;4975169;28;20089;-76
2022/03/31 19:12:10;;;;;;;18.08;12.45;;;;;;;2.22;79.97;98543.31;4988505;28;20418;-76
2022/03/31 19:14:37;;;;;;;13.60;10.75;;;;;;;2.15;79.62;98530.44;5024485;28;20034;-76
2022/03/31 19:17:03;;;;;;;13.55;9.73;;;;;;;2.33;79.45;98570.72;4973482;28;20047;-76
2022/03/31 19:19:30;;;;;;;;;;;;;;;2.36;79.61;98573.31;5025680;28;20042;-77
2022/03/31 19:21:56;;;;;;;92.30;51.90;;;;;;;2.25;79.85;98560.41;4977181;28;20361;-74
2022/03/31 19:24:22;;;;;;;20.20;13.88;;;;;;;1.95;79.35;98525.94;4990374;28;20034;-75
2022/03/31 19:26:48;;;;;;;17.10;12.10;;;;;;;2.20;79.44;98569.72;4990447;28;20367;-75
2022/03/31 19:29:14;;;;;;;17.73;12.13;;;;;;;1.93;79.23;98537.00;4993217;28;20042;-75
2022/03/31 19:31:42;;;;;;;16.48;11.27;;;;;;;2.00;79.48;98547.31;4977165;28;20097;-77
2022/03/31 19:34:08;;;;;;;14.68;10.82;;;;;;;2.06;79.35;98569.53;4960327;28;20034;-75
2022/03/31 19:36:34;;;;;;;15.82;11.60;;;;;;;2.00;79.39;98557.56;5007583;28;20039;-76
2022/03/31 19:39:00;;;;;;;15.50;10.48;;;;;;;2.08;79.54;98564.47;4928864;28;20426;-76
2022/03/31 19:41:32;;;;;;;16.10;11.65;;;;;;;2.17;79.90;98574.81;4958624;28;20050;-75
2022/03/31 19:43:58;;;;;;;15.30;11.65;;;;;;;1.99;79.93;98539.63;4977256;28;20496;-77
2022/03/31 19:46:24;;;;;;;14.90;10.80;;;;;;;2.03;79.62;98547.38;4959062;28;20042;-76
2022/03/31 19:48:51;;;;;;;14.55;10.52;;;;;;;1.83;78.32;98523.22;4978102;28;20065;-76
2022/03/31 19:51:17;;;;;;;15.25;11.43;;;;;;;2.05;79.10;98565.28;4973577;28;20031;-81
2022/03/31 19:53:44;;;;;;;16.45;11.38;;;;;;;1.89;79.51;98542.94;5009261;28;20489;-76
2022/03/31 19:56:11;;;;;;;16.48;11.82;;;;;;;1.82;79.38;98544.53;4975570;28;20414;-75
2022/03/31 19:58:38;;;;;;;17.13;12.52;;;;;;;1.80;79.60;98548.78;4961632;28;21306;-76
2022/03/31 20:01:09;;;;;;;17.83;13.13;;;;;;;1.90;80.32;98581.31;4939744;28;20038;-76
2022/03/31 20:03:41;;;;;;;17.08;12.50;;;;;;;1.93;80.21;98566.00;4971872;28;20035;-75
2022/03/31 20:06:07;;;;;;;16.98;12.20;;;;;;;2.07;80.14;98578.97;4976944;28;20038;-75
2022/03/31 20:08:34;;;;;;;18.45;12.63;;;;;;;2.22;80.16;98594.50;4973356;28;20514;-75
2022/03/31 20:11:00;;;;;;;19.25;13.65;;;;;;;2.00;79.52;98557.56;5007546;28;20093;-77
2022/03/31 20:13:26;;;;;;;18.27;13.20;;;;;;;1.90;78.96;98549.75;4988940;28;20533;-75
2022/03/31 20:15:52;;;;;;;20.88;15.20;;;;;;;2.02;79.23;98571.22;4991543;28;20524;-75
2022/03/31 20:18:21;;;;;;;20.17;13.98;;;;;;;2.16;79.23;98593.56;4943590;28;20130;-74
2022/03/31 20:20:48;;;;;;;19.42;13.52;;;;;;;2.01;79.15;98577.16;4973465;28;20114;-76
2022/03/31 20:23:15;;;;;;;22.40;14.07;;;;;;;2.02;79.45;98581.47;4983378;28;20486;-76
2022/03/31 20:25:41;;;;;;;20.20;14.18;;;;;;;1.93;79.80;98566.00;4972994;28;20043;-76
2022/03/31 20:28:07;;;;;;;;;;;;;;;2.20;80.58;98593.63;4956573;28;20026;-75
2022/03/31 20:30:33;;;;;;;17.75;13.13;;;;;;;2.20;79.15;98592.75;4992715;28;19964;-76
2022/03/31 20:33:00;;;;;;;19.90;13.85;;;;;;;2.09;78.91;98589.22;4956745;28;20039;-75
2022/03/31 20:35:26;;;;;;;18.55;13.10;;;;;;;2.02;79.56;98586.59;4975272;28;20039;-76
2022/03/31 20:37:52;;;;;;;18.80;14.05;;;;;;;2.04;79.03;98584.88;4966681;28;20138;-75
2022/03/31 20:40:20;;;;;;;20.05;14.23;;;;;;;2.01;79.06;98568.63;4967843;28;20482;-76
2022/03/31 20:42:46;;;;;;;19.20;13.43;;;;;;;2.09;79.08;98602.00;4957987;28;20042;-76
2022/03/31 20:45:12;;;;;;;19.50;14.13;;;;;;;1.92;79.88;98568.53;5003391;28;20113;-75
2022/03/31 20:47:38;;;;;;;20.13;13.98;;;;;;;2.10;79.88;98590.91;4993992;28;20529;-74
2022/03/31 20:50:04;;;;;;;17.25;12.93;;;;;;;2.00;79.67;98570.34;4974541;28;20153;-78
2022/03/31 20:52:31;;;;;;;17.98;13.90;;;;;;;2.11;79.47;98590.97;4981015;28;20041;-75
2022/03/31 20:54:56;;;;;;;17.98;13.15;;;;;;;2.11;79.44;98582.41;4990531;28;20041;-75
2022/03/31 20:57:22;;;;;;;19.90;14.00;;;;;;;2.18;79.09;98602.97;4990666;28;20459;-76
2022/03/31 20:59:48;;;;;;;17.70;12.57;;;;;;;2.00;79.09;98583.13;4992038;28;20077;-77
2022/03/31 21:02:14;;;;;;;17.60;13.32;;;;;;;1.96;79.30;98571.13;4976557;28;20405;-75
2022/03/31 21:04:40;;;;;;;17.83;13.05;;;;;;;1.91;79.44;98565.09;4956363;28;20518;-75
2022/03/31 21:07:05;;;;;;;18.70;12.50;;;;;;;2.01;79.22;98589.09;4948644;28;20061;-75
2022/03/31 21:09:31;;;;;;;18.02;13.05;;;;;;;2.07;79.96;98604.53;4945703;28;20043;-75
2022/03/31 21:11:58;;;;;;;17.52;13.50;;;;;;;1.97;79.90;98589.91;4962689;28;20041;-74
2022/03/31 21:14:24;;;;;;;19.55;14.05;;;;;;;1.75;79.82;98560.66;4978328;28;20038;-74
2022/03/31 21:16:51;;;;;;;;;;;;;;;2.12;80.26;98613.13;4960287;28;20038;-75
2022/03/31 21:19:17;;;;;;;19.25;13.35;;;;;;;1.93;79.56;98581.34;4990287;28;20393;-73
2022/03/31 21:21:43;;;;;;;30.17;21.02;;;;;;;2.08;79.45;98618.19;4947058;28;20394;-76
2022/03/31 21:24:09;;;;;;;20.42;14.98;;;;;;;2.04;79.91;98605.34;4975747;28;20049;-76
2022/03/31 21:26:34;;;;;;;19.25;14.05;;;;;;;1.97;79.54;98592.44;4959934;28;20037;-76
2022/03/31 21:29:00;;;;;;;20.10;15.18;;;;;;;2.16;79.26;98614.03;5008386;28;20045;-75
2022/03/31 21:31:26;;;;;;;18.70;13.88;;;;;;;1.96;79.55;98591.59;4957236;28;20046;-74
2022/03/31 21:33:52;;;;;;;35.17;24.98;;;;;;;2.06;79.57;98609.63;4981231;28;20088;-75
2022/03/31 21:36:18;;;;;;;24.17;17.75;;;;;;;1.91;79.60;98582.16;4989909;28;20040;-75
2022/03/31 21:38:44;;;;;;;18.77;14.38;;;;;;;2.26;80.02;98632.06;4975601;28;20050;-75
2022/03/31 21:41:09;;;;;;;20.88;14.88;;;;;;;2.33;79.85;98630.44;4959604;28;20042;-74
2022/03/31 21:43:35;;;;;;;20.65;15.07;;;;;;;2.09;78.50;98590.06;4960083;28;20042;-75
2022/03/31 21:46:01;;;;;;;19.38;14.95;;;;;;;1.93;78.15;98581.34;4959232;28;20884;-75
2022/03/31 21:48:27;;;;;;;23.20;16.13;;;;;;;1.94;78.34;98593.28;4959324;28;20038;-74
2022/03/31 21:50:53;;;;;;;;;;;;;;;2.14;79.42;98621.66;4975828;28;20048;-74
2022/03/31 21:53:18;;;;;;;23.63;15.68;;;;;;;1.82;79.00;98582.88;4975635;28;20306;-75
2022/03/31 21:55:44;;;;;;;22.77;15.45;;;;;;;1.92;78.73;98605.19;4994900;28;20045;-75
2022/03/31 21:58:10;;;;;;;25.13;16.70;;;;;;;1.92;79.55;98604.31;4978806;28;20042;-76
2022/03/31 22:00:39;;;;;;;25.42;16.90;;;;;;;2.01;79.10;98630.88;4962774;28;20046;-74
2022/03/31 22:03:09;;;;;;;23.58;16.38;;;;;;;1.85;79.69;98608.50;4996105;28;20523;-76
2022/03/31 22:05:35;;;;;;;24.92;17.77;;;;;;;1.81;79.98;98596.53;4961685;28;20124;-75
2022/03/31 22:13:30;;;;;;;26.98;19.52;;;;;;;1.78;80.17;98611.81;4985085;28;20054;-74
2022/03/31 22:15:56;;;;;;;29.27;19.00;;;;;;;1.75;80.46;98604.13;5008240;28;20408;-74
2022/03/31 22:18:22;;;;;;;28.63;19.30;;;;;;;1.97;80.14;98623.16;4994416;28;20054;-74
2022/03/31 22:20:48;;;;;;;29.15;20.25;;;;;;;1.95;79.98;98623.13;4981426;28;20082;-74
2022/03/31 22:23:15;;;;;;;28.67;19.08;;;;;;;2.01;79.77;98641.09;4980017;28;20046;-75
2022/03/31 22:25:41;;;;;;;28.90;18.83;;;;;;;2.04;80.36;98636.03;4978275;28;20030;-75
2022/03/31 22:28:07;;;;;;;;;;;;;;;2.00;80.08;98634.28;4978610;28;20040;-74
2022/03/31 22:30:33;;;;;;;30.50;20.52;;;;;;;1.73;79.78;98608.34;5017977;28;20427;-74
2022/03/31 22:32:58;;;;;;;;;;;;;;;1.98;80.44;98641.09;4989149;28;20057;-73
2022/03/31 22:35:24;;;;;;;32.40;20.15;;;;;;;1.76;80.09;98611.78;4950340;28;19913;-74
2022/03/31 22:37:50;;;;;;;30.35;19.80;;;;;;;1.60;80.50;98581.72;5026977;28;20089;-74
2022/03/31 22:40:15;;;;;;;32.70;20.92;;;;;;;1.90;80.77;98646.94;4964646;28;20775;-74
2022/03/31 22:42:41;;;;;;;31.13;20.40;;;;;;;1.75;80.56;98606.69;4994432;28;20117;-74
2022/03/31 22:45:07;;;;;;;33.88;21.02;;;;;;;1.73;80.69;98609.19;4960215;28;20034;-74
2022/03/31 22:47:35;;;;;;;36.58;21.65;;;;;;;1.89;81.12;98627.31;5010172;28;20120;-75
2022/03/31 22:50:01;;;;;;;33.33;21.42;;;;;;;1.89;80.17;98638.41;4962060;28;20104;-75
2022/03/31 22:52:27;;;;;;;37.10;22.20;;;;;;;1.90;80.64;98636.72;4981252;28;20074;-74
2022/03/31 22:54:53;;;;;;;36.38;22.15;;;;;;;1.74;80.50;98616.03;4967596;28;20508;-74
2022/03/31 22:57:19;;;;;;;37.42;22.73;;;;;;;1.79;80.62;98636.56;4990242;28;20046;-74
2022/03/31 22:59:45;;;;;;;37.15;21.83;;;;;;;1.64;80.81;98606.50;4977496;28;20490;-74
2022/03/31 23:02:13;;;;;;;40.45;23.13;;;;;;;1.76;81.27;98627.13;4977619;28;20219;-75
2022/03/31 23:04:39;;;;;;;39.90;22.48;;;;;;;1.63;81.32;98609.03;4987741;28;20023;-74
2022/03/31 23:07:05;;;;;;;39.08;22.85;;;;;;;1.75;81.65;98632.25;4945713;28;20059;-75
2022/03/31 23:09:31;;;;;;;;;;;;;;;1.81;82.67;98637.44;4987740;28;20039;-75
2022/03/31 23:11:57;;;;;;;40.45;23.02;;;;;;;1.52;82.29;98579.09;4990446;28;20349;-75
2022/03/31 23:14:22;;;;;;;40.65;22.77;;;;;;;1.90;81.91;98637.56;4939587;29;20545;-74
2022/03/31 23:16:48;;;;;;;39.70;22.48;;;;;;;1.71;81.22;98594.69;4990613;28;20053;-73
2022/03/31 23:19:14;;;;;;;42.03;24.17;;;;;;;1.86;81.44;98625.56;4993481;28;20042;-74
2022/03/31 23:21:40;;;;;;;;;;;;;;;1.89;81.96;98630.72;4993810;28;20045;-73
2022/03/31 23:24:07;;;;;;;40.13;22.80;;;;;;;1.75;81.32;98622.88;4979287;28;19914;-74
2022/03/31 23:26:33;;;;;;;39.50;22.25;;;;;;;1.78;81.28;98633.13;4961085;28;20038;-74
2022/03/31 23:28:58;;;;;;;43.17;26.13;;;;;;;1.84;81.76;98627.25;4976958;28;20092;-74
2022/03/31 23:31:24;;;;;;;43.50;23.48;;;;;;;1.82;82.15;98631.47;5009342;28;20054;-74
2022/03/31 23:33:50;;;;;;;;;;;;;;;1.92;81.59;98635.88;4961291;28;20034;-75
2022/03/31 23:36:16;;;;;;;41.30;22.02;;;;;;;1.94;80.95;98643.59;4992896;28;19917;-74
2022/03/31 23:38:42;;;;;;;37.90;21.77;;;;;;;1.62;80.87;98589.44;4993069;28;20479;-75
2022/03/31 23:41:08;;;;;;;37.42;21.27;;;;;;;1.81;81.09;98626.34;4960973;28;20096;-75
2022/03/31 23:43:34;;;;;;;36.55;22.15;;;;;;;1.64;80.82;98592.88;4960613;28;20030;-75
2022/03/31 23:45:59;;;;;;;36.38;21.05;;;;;;;1.88;80.97;98634.13;4993051;28;20046;-74
2022/03/31 23:48:25;;;;;;;37.05;20.65;;;;;;;1.93;81.87;98624.81;4993802;28;20551;-75
2022/03/31 23:50:51;;;;;;;37.45;20.70;;;;;;;1.91;81.08;98623.94;4992609;28;20092;-75
2022/03/31 23:53:18;;;;;;;37.25;21.83;;;;;;;1.67;80.60;98598.88;4992784;28;20030;-76
2022/03/31 23:55:44;;;;;;;35.10;19.95;;;;;;;1.69;80.69;98609.13;5009200;28;20098;-76
2022/03/31 23:58:09;;;;;;;32.25;18.77;;;;;;;1.57;81.24;98580.84;4992630;28;20544;-75
